Time;durP1;ratioP1;P1;durP2;ratioP2;P2;SDS_P1;SDS_P2;PMS_P1;PMS_P2;Temp;Humidity;BMP_temperature;BMP_pressure;BME280_temperature;BME280_humidity;BME280_pressure;Samples;Min_cycle;Max_cycle;Signal;HPM_P1;HPM_P2
2024/01/22 00:01:27;;;;;;;3.58;2.05;;;;;;;7.95;100.00;100782.19;5029164;28;20600;-68
2024/01/22 00:04:15;;;;;;;3.70;2.00;;;;;;;7.83;100.00;100783.13;5069277;28;20127;-68
2024/01/22 00:07:03;;;;;;;5.53;2.47;;;;;;;7.87;100.00;100757.13;5045757;28;20045;-68
2024/01/22 00:09:51;;;;;;;3.53;1.83;;;;;;;8.14;100.00;100745.53;5043670;28;20120;-67
2024/01/22 00:12:39;;;;;;;3.33;2.10;;;;;;;8.29;100.00;100751.13;5070945;28;20413;-68
2024/01/22 00:15:27;;;;;;;3.22;2.10;;;;;;;8.31;100.00;100740.00;5070521;28;20056;-68
2024/01/22 00:18:15;;;;;;;7.15;3.00;;;;;;;8.13;100.00;100751.19;5056553;28;20123;-68
2024/01/22 00:21:04;;;;;;;3.53;2.30;;;;;;;7.99;100.00;100748.88;5046104;28;20040;-68
2024/01/22 00:23:52;;;;;;;3.85;2.40;;;;;;;8.14;100.00;100728.44;5075462;28;20047;-68
2024/01/22 00:26:40;;;;;;;4.40;2.72;;;;;;;8.08;100.00;100738.38;5073324;28;20044;-67
2024/01/22 00:29:28;;;;;;;4.10;2.40;;;;;;;8.27;100.00;100723.44;5046603;28;20064;-66
2024/01/22 00:32:16;;;;;;;3.10;1.98;;;;;;;8.31;100.00;100715.59;5059690;28;20041;-68
2024/01/22 00:35:04;;;;;;;5.78;2.55;;;;;;;8.18;100.00;100724.97;5059007;28;20099;-69
2024/01/22 00:37:52;;;;;;;2.97;1.80;;;;;;;8.17;100.00;100717.06;5061795;28;20052;-68
2024/01/22 00:40:40;;;;;;;2.65;1.95;;;;;;;8.21;100.00;100691.88;5080254;28;20047;-69
2024/01/22 00:43:28;;;;;;;4.97;2.65;;;;;;;8.18;100.00;100691.53;5067066;28;20060;-68
2024/01/22 00:46:16;;;;;;;6.93;2.65;;;;;;;8.10;100.00;100681.97;5082293;28;20068;-68
2024/01/22 00:49:04;;;;;;;4.10;2.08;;;;;;;8.24;100.00;100669.63;5045442;28;20043;-69
2024/01/22 00:51:53;;;;;;;4.38;2.30;;;;;;;8.33;100.00;100653.72;5054552;28;20077;-69
2024/01/22 00:54:41;;;;;;;3.25;2.10;;;;;;;8.39;100.00;100666.25;5040247;28;20049;-68
2024/01/22 00:57:29;;;;;;;5.40;2.17;;;;;;;8.28;100.00;100638.19;5036561;28;20063;-68
2024/01/22 01:00:17;;;;;;;2.97;1.85;;;;;;;8.46;100.00;100649.78;5070422;28;20169;-67
2024/01/22 01:03:05;;;;;;;2.72;1.80;;;;;;;8.50;100.00;100657.16;5074740;28;20135;-68
2024/01/22 01:05:53;;;;;;;3.20;1.70;;;;;;;8.52;100.00;100659.63;5075958;28;20504;-68
2024/01/22 01:08:41;;;;;;;3.45;2.08;;;;;;;8.59;100.00;100632.25;5067657;28;20496;-68
2024/01/22 01:11:29;;;;;;;2.95;1.95;;;;;;;8.53;100.00;100662.06;5081127;28;20041;-68
2024/01/22 01:14:17;;;;;;;2.15;1.70;;;;;;;8.60;100.00;100639.31;5039283;28;20452;-69
2024/01/22 01:17:05;;;;;;;4.88;2.20;;;;;;;8.56;100.00;100638.19;5058461;28;20118;-69
2024/01/22 01:19:53;;;;;;;3.08;2.00;;;;;;;8.70;100.00;100648.34;5045031;28;20122;-67
2024/01/22 01:22:41;;;;;;;4.57;2.38;;;;;;;8.80;100.00;100665.81;5074403;28;20412;-68
2024/01/22 01:25:29;;;;;;;2.33;1.83;;;;;;;8.70;100.00;100651.06;5073766;28;20075;-67
2024/01/22 01:28:17;;;;;;;4.30;2.30;;;;;;;8.46;100.00;100650.59;5069634;28;20055;-68
2024/01/22 01:31:06;;;;;;;5.85;2.63;;;;;;;8.56;100.00;100632.75;5072433;28;20047;-68
2024/01/22 01:33:54;;;;;;;3.47;1.90;;;;;;;8.50;100.00;100643.56;5061560;28;20438;-67
2024/01/22 01:36:42;;;;;;;3.92;2.10;;;;;;;8.52;100.00;100630.56;5057765;28;20052;-68
2024/01/22 01:39:30;;;;;;;5.72;2.58;;;;;;;8.42;100.00;100644.06;5067877;28;20056;-68
2024/01/22 01:42:18;;;;;;;2.95;1.80;;;;;;;8.55;100.00;100620.28;5043926;28;20044;-68
2024/01/22 01:45:13;;;;;;;1.92;1.63;;;;;;;8.37;100.00;100630.41;5066809;28;20535;-67
2024/01/22 01:48:02;;;;;;;1.48;1.38;;;;;;;8.28;100.00;100619.19;5031442;28;20044;-68
2024/01/22 01:50:50;;;;;;;2.75;1.75;;;;;;;8.59;100.00;100615.97;5072739;28;20040;-68
2024/01/22 01:53:39;;;;;;;3.47;2.10;;;;;;;8.46;100.00;100609.88;5043413;28;20048;-67
2024/01/22 01:56:27;;;;;;;5.05;2.38;;;;;;;8.63;100.00;100595.34;5031252;28;20047;-68
2024/01/22 01:59:15;;;;;;;6.32;2.42;;;;;;;8.45;100.00;100597.38;5072596;28;20092;-67
2024/01/22 02:02:03;;;;;;;2.25;1.60;;;;;;;8.70;100.00;100595.94;5058386;28;20045;-67
2024/01/22 02:04:51;;;;;;;4.47;2.50;;;;;;;8.80;100.00;100576.97;5073836;28;20049;-67
2024/01/22 02:07:39;;;;;;;2.38;1.50;;;;;;;8.71;100.00;100592.16;5072828;28;20056;-70
2024/01/22 02:10:27;;;;;;;4.53;2.22;;;;;;;8.49;100.00;100571.34;5056265;28;20090;-68
2024/01/22 02:13:15;;;;;;;5.70;2.25;;;;;;;8.41;100.00;100566.38;5079253;28;20049;-67
2024/01/22 02:16:03;;;;;;;4.13;2.33;;;;;;;8.48;100.00;100569.69;5060935;28;20186;-68
2024/01/22 02:18:51;;;;;;;2.00;1.50;;;;;;;8.41;100.00;100543.88;5083302;28;20507;-67
2024/01/22 02:21:40;;;;;;;2.60;1.60;;;;;;;8.61;100.00;100538.59;5082279;28;20048;-67
2024/01/22 02:24:28;;;;;;;5.13;2.78;;;;;;;8.85;100.00;100539.00;5080547;28;20054;-67
2024/01/22 02:27:16;;;;;;;5.97;2.15;;;;;;;8.57;100.00;100525.78;5068354;28;20044;-69
2024/01/22 02:30:05;;;;;;;5.88;2.40;;;;;;;8.49;100.00;100527.91;5034952;28;20044;-67
2024/01/22 02:32:53;;;;;;;3.97;2.00;;;;;;;8.57;100.00;100525.78;5093932;28;20041;-68
2024/01/22 02:35:41;;;;;;;2.05;1.73;;;;;;;9.03;100.00;100485.28;5078125;28;20064;-67
2024/01/22 02:38:29;;;;;;;3.13;2.00;;;;;;;8.85;100.00;100492.81;5062800;28;20049;-68
2024/01/22 02:41:17;;;;;;;3.97;1.92;;;;;;;8.86;100.00;100485.47;5072985;28;20044;-68
2024/01/22 02:44:05;;;;;;;2.17;1.50;;;;;;;8.80;100.00;100492.75;5071603;28;20553;-68
2024/01/22 02:46:54;;;;;;;4.07;2.00;;;;;;;8.93;100.00;100464.31;5061115;28;20051;-70
2024/01/22 02:49:42;;;;;;;2.78;1.98;;;;;;;8.95;100.00;100457.53;5073371;28;20512;-68
2024/01/22 02:52:30;;;;;;;3.10;2.03;;;;;;;9.19;100.00;100451.63;5072870;28;20212;-67
2024/01/22 02:55:18;;;;;;;3.50;2.33;;;;;;;8.93;100.00;100451.53;5071943;28;20036;-69
2024/01/22 02:58:08;;;;;;;4.25;1.95;;;;;;;8.92;100.00;100444.47;5041816;28;20079;-68
2024/01/22 03:00:56;;;;;;;4.13;1.90;;;;;;;8.74;100.00;100439.50;5072563;28;20052;-68
2024/01/22 03:03:44;;;;;;;3.95;2.10;;;;;;;8.90;100.00;100424.91;5044264;28;20548;-68
2024/01/22 03:06:32;;;;;;;2.25;1.67;;;;;;;8.99;100.00;100408.88;5056792;28;20040;-66
2024/01/22 03:09:21;;;;;;;4.65;2.05;;;;;;;9.23;100.00;100406.50;5056883;28;20127;-67
2024/01/22 03:12:09;;;;;;;5.03;2.20;;;;;;;9.14;100.00;100397.25;5066524;28;20040;-68
2024/01/22 03:14:57;;;;;;;3.78;1.73;;;;;;;9.05;100.00;100401.59;5058558;28;20048;-67
2024/01/22 03:17:45;;;;;;;6.07;2.33;;;;;;;8.92;100.00;100398.28;5072607;28;20048;-69
2024/01/22 03:20:34;;;;;;;2.80;1.67;;;;;;;8.83;100.00;100370.00;5072214;28;20045;-68
2024/01/22 03:23:22;;;;;;;1.23;1.15;;;;;;;8.93;100.00;100372.75;5074151;28;20041;-67
2024/01/22 03:26:21;;;;;;;2.25;1.58;;;;;;;9.03;100.00;100371.13;5045101;28;20126;-68
2024/01/22 03:29:09;;;;;;;5.20;2.28;;;;;;;8.99;100.00;100365.41;5057524;28;20504;-68
2024/01/22 03:31:57;;;;;;;1.52;1.40;;;;;;;8.92;100.00;100370.28;5045671;28;20101;-69
2024/01/22 03:34:45;;;;;;;2.97;1.80;;;;;;;9.01;100.00;100370.59;5073487;28;20087;-68
2024/01/22 03:37:33;;;;;;;2.53;1.92;;;;;;;8.88;100.00;100375.44;5071627;28;20044;-68
2024/01/22 03:40:21;;;;;;;2.75;1.80;;;;;;;8.94;100.00;100362.69;5056894;28;20128;-69
2024/01/22 03:43:09;;;;;;;4.72;2.00;;;;;;;8.88;100.00;100374.66;5058180;28;20051;-69
2024/01/22 03:45:57;;;;;;;3.50;1.80;;;;;;;8.77;100.00;100368.34;5044287;28;20519;-69
2024/01/22 03:48:45;;;;;;;2.25;1.50;;;;;;;8.86;100.00;100361.31;5070560;28;20560;-69
2024/01/22 03:51:34;;;;;;;2.47;1.50;;;;;;;8.86;100.00;100365.94;5057756;28;20048;-67
2024/01/22 03:54:22;;;;;;;2.03;1.60;;;;;;;8.90;100.00;100351.56;5072337;28;20045;-67
2024/01/22 03:57:10;;;;;;;2.00;1.40;;;;;;;9.02;100.00;100353.19;5060518;28;20045;-70
2024/01/22 03:59:58;;;;;;;2.15;1.77;;;;;;;8.96;100.00;100352.38;5043386;28;20132;-68
2024/01/22 04:02:48;;;;;;;2.30;1.65;;;;;;;8.99;100.00;100348.28;5042731;28;20041;-68
2024/01/22 04:05:37;;;;;;;2.00;1.40;;;;;;;8.89;100.00;100355.34;5057551;28;20051;-68
2024/01/22 04:08:25;;;;;;;2.00;1.42;;;;;;;8.82;100.00;100343.91;5072718;28;20047;-68
2024/01/22 04:11:13;;;;;;;2.90;1.67;;;;;;;8.80;100.00;100340.63;5074979;28;20067;-67
2024/01/22 04:14:01;;;;;;;2.80;1.77;;;;;;;8.83;100.00;100353.72;5033608;28;20064;-67
2024/01/22 04:16:50;;;;;;;1.92;1.40;;;;;;;8.89;100.00;100328.16;5060268;28;20049;-66
2024/01/22 04:19:38;;;;;;;1.20;1.10;;;;;;;8.90;100.00;100340.69;5071813;28;20045;-67
2024/01/22 04:22:26;;;;;;;2.08;1.38;;;;;;;8.91;100.00;100342.31;5072853;28;20040;-68
2024/01/22 04:25:14;;;;;;;1.52;1.42;;;;;;;8.96;100.00;100339.59;5075076;28;20131;-68
2024/01/22 04:28:03;;;;;;;1.73;1.52;;;;;;;8.91;100.00;100339.59;5032489;28;20208;-69
2024/01/22 04:30:51;;;;;;;2.13;1.45;;;;;;;8.94;100.00;100336.31;5061569;28;20416;-69
2024/01/22 04:33:41;;;;;;;2.80;1.60;;;;;;;9.04;100.00;100334.72;5076965;28;20040;-69
2024/01/22 04:36:29;;;;;;;1.33;1.23;;;;;;;8.91;100.00;100330.63;5054165;28;20067;-69
2024/01/22 04:39:19;;;;;;;1.65;1.48;;;;;;;8.94;100.00;100336.31;5080576;28;20135;-67
2024/01/22 04:42:07;;;;;;;1.40;1.25;;;;;;;8.95;100.00;100337.16;5059311;28;20051;-67
2024/01/22 04:44:56;;;;;;;1.83;1.58;;;;;;;8.94;100.00;100339.03;5076040;28;20051;-68
2024/01/22 04:47:46;;;;;;;4.55;1.80;;;;;;;8.98;100.00;100344.78;5074786;28;20386;-68
2024/01/22 04:50:34;;;;;;;1.58;1.38;;;;;;;8.99;100.00;100321.13;5058878;28;20053;-68
2024/01/22 04:53:22;;;;;;;1.80;1.33;;;;;;;9.08;100.00;100308.63;5047760;28;20135;-69
2024/01/22 04:56:10;;;;;;;1.50;1.40;;;;;;;9.02;100.00;100309.72;5075222;28;20094;-67
2024/01/22 04:58:58;;;;;;;1.23;1.13;;;;;;;9.03;100.00;100306.72;5057718;28;20061;-70
2024/01/22 05:01:46;;;;;;;3.33;1.42;;;;;;;9.02;100.00;100304.28;5052255;28;20511;-68
2024/01/22 05:04:34;;;;;;;1.33;1.20;;;;;;;9.03;100.00;100295.84;5075722;28;20040;-68
2024/01/22 05:07:25;;;;;;;2.95;1.65;;;;;;;9.09;100.00;100292.06;5068065;28;20450;-69
2024/01/22 05:10:15;;;;;;;2.67;1.70;;;;;;;9.07;100.00;100290.72;5084811;28;20041;-69
2024/01/22 05:13:03;;;;;;;1.73;1.40;;;;;;;9.16;100.00;100264.59;5040428;28;20049;-68
2024/01/22 05:15:51;;;;;;;5.25;1.63;;;;;;;9.23;100.00;100278.72;5030898;28;20048;-67
2024/01/22 05:18:39;;;;;;;2.03;1.38;;;;;;;9.15;100.00;100287.44;5060441;28;20143;-68
2024/01/22 05:21:27;;;;;;;4.28;1.83;;;;;;;9.12;100.00;100312.47;5058328;28;20040;-68
2024/01/22 05:24:15;;;;;;;4.25;1.85;;;;;;;9.16;100.00;100284.47;5060691;28;20463;-68
2024/01/22 05:27:04;;;;;;;3.80;1.80;;;;;;;9.22;100.00;100276.31;5074837;28;20123;-69
2024/01/22 05:29:52;;;;;;;2.95;1.75;;;;;;;9.18;100.00;100274.13;5074593;28;20500;-69
2024/01/22 05:32:40;;;;;;;1.90;1.23;;;;;;;9.22;100.00;100285.28;5064569;28;20100;-68
2024/01/22 05:35:28;;;;;;;3.20;1.48;;;;;;;9.26;100.00;100280.94;5053946;28;20045;-67
2024/01/22 05:38:16;;;;;;;4.65;2.03;;;;;;;9.46;100.00;100284.72;5028098;28;20045;-67
2024/01/22 05:41:04;;;;;;;3.95;1.40;;;;;;;9.38;100.00;100297.78;5053940;28;20055;-68
2024/01/22 05:43:52;;;;;;;3.17;1.52;;;;;;;9.34;100.00;100298.59;5053208;28;20538;-68
2024/01/22 05:46:40;;;;;;;1.55;1.20;;;;;;;9.32;100.00;100292.59;5073051;28;20408;-69
2024/01/22 05:49:28;;;;;;;2.63;1.40;;;;;;;9.31;100.00;100297.22;5055601;28;20048;-68
2024/01/22 05:52:17;;;;;;;2.85;1.40;;;;;;;9.32;100.00;100293.41;5046051;28;20174;-68
2024/01/22 05:55:06;;;;;;;3.60;1.38;;;;;;;9.43;100.00;100294.25;5073648;28;20194;-71
2024/01/22 05:57:54;;;;;;;3.70;1.70;;;;;;;9.47;100.00;100303.47;5072766;28;20486;-68
2024/01/22 06:00:42;;;;;;;2.67;1.40;;;;;;;9.45;100.00;100315.69;5064955;28;20404;-69
2024/01/22 06:03:30;;;;;;;3.35;1.77;;;;;;;9.42;100.00;100311.63;5059298;28;20048;-68
2024/01/22 06:06:19;;;;;;;3.58;1.52;;;;;;;9.41;100.00;100326.31;5060679;28;20183;-69
2024/01/22 06:09:08;;;;;;;2.92;1.13;;;;;;;9.48;100.00;100318.72;5058649;28;20432;-68
2024/01/22 06:11:56;;;;;;;2.53;1.27;;;;;;;9.52;100.00;100316.25;5039663;28;20045;-68
2024/01/22 06:14:44;;;;;;;8.63;1.60;;;;;;;9.45;100.00;100323.84;5053065;28;20045;-70
2024/01/22 06:17:33;;;;;;;3.90;1.92;;;;;;;9.37;100.00;100307.00;5072486;28;20677;-69
2024/01/22 06:20:21;;;;;;;2.97;1.80;;;;;;;9.37;100.00;100290.69;5058893;28;20075;-67
2024/01/22 06:23:09;;;;;;;6.95;2.00;;;;;;;9.34;100.00;100295.88;5072756;28;20227;-67
2024/01/22 06:25:58;;;;;;;5.57;1.90;;;;;;;9.33;100.00;100299.66;5063425;28;20418;-67
2024/01/22 06:28:47;;;;;;;6.65;1.98;;;;;;;9.37;100.00;100306.19;5059516;28;20057;-66
2024/01/22 06:31:36;;;;;;;2.92;1.80;;;;;;;9.37;100.00;100309.72;5013992;28;20594;-68
2024/01/22 06:34:24;;;;;;;4.60;2.13;;;;;;;9.41;100.00;100301.03;4367786;28;10000490;-67
2024/01/22 06:37:15;;;;;;;5.07;2.03;;;;;;;9.44;100.00;100295.03;5052906;28;20048;-67
2024/01/22 06:40:04;;;;;;;4.78;2.00;;;;;;;9.50;100.00;100310.25;5069904;28;20060;-68
2024/01/22 06:42:52;;;;;;;6.78;2.53;;;;;;;9.55;100.00;100302.13;5062992;28;20121;-68
2024/01/22 06:45:40;;;;;;;10.30;2.33;;;;;;;9.54;100.00;100314.06;5077328;28;20056;-69
2024/01/22 06:48:29;;;;;;;4.53;1.70;;;;;;;9.55;100.00;100321.16;5086235;28;20110;-68
2024/01/22 06:51:17;;;;;;;5.68;2.20;;;;;;;9.52;100.00;100327.13;5085475;28;20112;-68
2024/01/22 06:54:19;;;;;;;2.55;1.50;;;;;;;9.48;100.00;100339.66;5068245;28;20472;-68
2024/01/22 06:57:11;;;;;;;4.03;1.75;;;;;;;9.48;100.00;100334.22;5069874;28;20145;-68
2024/01/22 07:00:02;;;;;;;4.38;2.10;;;;;;;9.52;100.00;100335.28;5069591;28;20186;-67
2024/01/22 07:02:50;;;;;;;6.00;2.40;;;;;;;9.59;100.00;100333.09;5046505;28;20568;-68
2024/01/22 07:05:39;;;;;;;4.18;2.03;;;;;;;9.65;100.00;100333.94;5056491;28;20048;-68
2024/01/22 07:08:27;;;;;;;7.93;2.10;;;;;;;9.68;100.00;100330.66;5059520;28;20044;-68
2024/01/22 07:11:16;;;;;;;4.32;1.70;;;;;;;9.71;100.00;100341.78;5045434;28;20053;-68
2024/01/22 07:14:04;;;;;;;9.48;2.22;;;;;;;9.71;100.00;100335.53;5044041;28;20507;-68
2024/01/22 07:16:52;;;;;;;2.63;1.70;;;;;;;9.70;100.00;100348.31;5038381;28;20132;-67
2024/01/22 07:19:40;;;;;;;6.15;2.20;;;;;;;9.69;100.00;100352.16;5071971;28;20053;-67
2024/01/22 07:22:28;;;;;;;4.90;1.95;;;;;;;9.69;100.00;100357.59;5057965;28;20121;-67
2024/01/22 07:25:16;;;;;;;2.85;1.50;;;;;;;9.72;100.00;100339.91;5051948;28;20057;-68
2024/01/22 07:28:05;;;;;;;5.38;2.40;;;;;;;9.75;100.00;100355.66;5045811;28;20489;-68
2024/01/22 07:30:53;;;;;;;4.93;1.70;;;;;;;9.80;100.00;100347.50;5027613;28;20497;-68
2024/01/22 07:33:41;;;;;;;5.07;2.15;;;;;;;9.81;100.00;100349.97;5044034;28;20076;-68
2024/01/22 07:36:29;;;;;;;5.40;2.30;;;;;;;9.85;100.00;100360.28;5029626;28;20048;-70
2024/01/22 07:39:18;;;;;;;9.00;2.60;;;;;;;9.89;100.00;100351.28;5061403;28;20041;-68
2024/01/22 07:42:08;;;;;;;6.40;2.17;;;;;;;9.85;100.00;100371.16;5060566;28;20052;-67
2024/01/22 07:44:56;;;;;;;5.13;2.00;;;;;;;9.79;100.00;100371.19;5055657;28;20497;-68
2024/01/22 07:47:45;;;;;;;10.45;2.83;;;;;;;9.86;100.00;100375.50;5058988;28;20047;-67
2024/01/22 07:50:33;;;;;;;9.30;2.50;;;;;;;9.86;100.00;100372.78;5054732;28;20067;-66
2024/01/22 07:53:21;;;;;;;9.32;3.05;;;;;;;9.85;100.00;100371.16;5098693;28;20048;-67
2024/01/22 07:56:09;;;;;;;9.55;3.10;;;;;;;9.85;100.00;100365.72;5061574;28;20057;-68
2024/01/22 07:58:57;;;;;;;16.63;4.18;;;;;;;9.90;100.00;100363.81;5041874;28;20049;-67
2024/01/22 08:01:45;;;;;;;18.02;5.70;;;;;;;10.03;100.00;100357.81;5027724;28;20131;-68
2024/01/22 08:04:34;;;;;;;12.50;3.25;;;;;;;10.08;100.00;100376.03;5051054;28;20469;-69
2024/01/22 08:07:22;;;;;;;10.10;2.80;;;;;;;9.97;100.00;100382.56;5060629;28;20127;-68
2024/01/22 08:10:12;;;;;;;14.63;4.03;;;;;;;10.10;100.00;100362.13;5060016;28;20094;-67
2024/01/22 08:13:00;;;;;;;9.63;3.25;;;;;;;10.11;100.00;100375.47;5076591;28;20515;-68
2024/01/22 08:15:49;;;;;;;13.20;3.50;;;;;;;10.03;100.00;100384.22;5062501;28;20045;-67
2024/01/22 08:18:37;;;;;;;8.50;3.08;;;;;;;9.94;100.00;100380.41;5040662;28;20139;-67
2024/01/22 08:21:25;;;;;;;13.50;3.80;;;;;;;9.97;100.00;100382.56;5055222;28;20124;-67
2024/01/22 08:24:13;;;;;;;18.92;4.90;;;;;;;9.97;100.00;100377.13;5027325;28;20056;-67
2024/01/22 08:27:02;;;;;;;15.25;3.97;;;;;;;10.03;100.00;100389.66;5052923;28;20134;-68
2024/01/22 08:29:50;;;;;;;13.25;3.60;;;;;;;10.02;100.00;100398.91;5060174;28;20055;-68
2024/01/22 08:32:39;;;;;;;16.02;3.97;;;;;;;10.00;100.00;100396.44;5075682;28;20553;-67
2024/01/22 08:35:30;;;;;;;11.43;3.17;;;;;;;9.99;100.00;100402.16;5075305;28;20402;-68
2024/01/22 08:38:19;;;;;;;18.15;5.38;;;;;;;10.02;100.00;100388.00;5034554;28;20118;-69
2024/01/22 08:41:08;;;;;;;14.18;4.00;;;;;;;9.97;100.00;100393.47;5059420;28;20080;-68
2024/01/22 08:43:59;;;;;;;13.93;3.70;;;;;;;9.99;100.00;100394.00;5075999;28;20094;-68
2024/01/22 08:46:49;;;;;;;11.98;3.47;;;;;;;9.97;100.00;100407.06;5048806;28;20052;-67
2024/01/22 08:49:39;;;;;;;14.05;3.83;;;;;;;9.93;100.00;100404.09;5075576;28;20045;-68
2024/01/22 08:52:27;;;;;;;14.15;4.00;;;;;;;9.91;100.00;100408.16;5045938;28;20121;-69
2024/01/22 08:55:16;;;;;;;12.82;3.38;;;;;;;9.90;100.00;100401.91;5040880;28;20049;-67
2024/01/22 08:58:04;;;;;;;11.57;3.97;;;;;;;9.93;100.00;100405.97;5025725;28;20131;-67
2024/01/22 09:00:52;;;;;;;10.77;3.50;;;;;;;9.89;100.00;100405.72;5040933;28;20063;-68
2024/01/22 09:03:40;;;;;;;12.52;4.60;;;;;;;9.92;100.00;100404.34;5040511;28;20057;-67
2024/01/22 09:06:28;;;;;;;26.77;7.78;;;;;;;9.93;100.00;100401.38;5068785;28;20059;-67
2024/01/22 09:09:17;;;;;;;17.40;4.80;;;;;;;9.99;100.00;100389.38;5060226;28;20040;-68
2024/01/22 09:12:05;;;;;;;12.98;3.97;;;;;;;9.98;100.00;100393.19;5061961;28;20504;-68
2024/01/22 09:14:53;;;;;;;18.45;5.07;;;;;;;9.94;100.00;100396.75;5046190;28;20440;-67
2024/01/22 09:17:41;;;;;;;17.20;5.13;;;;;;;10.00;100.00;100392.91;5074595;28;20044;-68
2024/01/22 09:20:30;;;;;;;18.23;5.25;;;;;;;9.99;100.00;100407.63;5075020;28;20458;-67
2024/01/22 09:23:18;;;;;;;18.88;5.38;;;;;;;9.94;100.00;100389.38;5059042;28;20199;-67
2024/01/22 09:26:06;;;;;;;14.40;4.72;;;;;;;9.96;100.00;100398.09;5032940;28;20436;-68
2024/01/22 09:28:59;;;;;;;17.90;5.00;;;;;;;9.99;100.00;100383.13;5058255;28;20488;-68
2024/01/22 09:31:47;;;;;;;13.15;4.15;;;;;;;9.96;100.00;100389.13;5060213;28;20056;-67
2024/01/22 09:34:36;;;;;;;14.82;4.85;;;;;;;9.94;100.00;100381.22;5045914;28;20052;-67
2024/01/22 09:37:25;;;;;;;20.80;4.90;;;;;;;9.92;100.00;100388.84;5032518;28;20045;-69
2024/01/22 09:40:13;;;;;;;17.60;4.82;;;;;;;9.90;100.00;100384.75;5073795;28;20060;-69
2024/01/22 09:43:12;;;;;;;15.80;4.70;;;;;;;9.96;100.00;100400.00;5042087;28;20073;-66
2024/01/22 09:46:01;;;;;;;19.42;5.47;;;;;;;10.10;100.00;100360.25;5042969;28;20064;-68
2024/01/22 09:48:50;;;;;;;17.38;5.35;;;;;;;10.06;100.00;100385.56;5064844;28;20040;-68
2024/01/22 09:51:44;;;;;;;20.15;6.45;;;;;;;10.05;100.00;100392.09;5059566;28;20037;-67
2024/01/22 09:54:32;;;;;;;16.88;4.75;;;;;;;10.00;100.00;100379.28;5073005;28;20076;-67
2024/01/22 09:57:22;;;;;;;12.32;4.10;;;;;;;10.00;100.00;100395.63;5045060;28;20584;-68
2024/01/22 10:00:13;;;;;;;12.98;5.13;;;;;;;10.06;100.00;100396.44;5069363;28;20138;-67
2024/01/22 10:03:03;;;;;;;13.55;4.03;;;;;;;10.00;100.00;100412.75;5074419;28;20127;-67
2024/01/22 10:05:51;;;;;;;14.23;4.35;;;;;;;9.82;100.00;100530.34;5046920;28;20162;-68
2024/01/22 10:08:40;;;;;;;20.70;5.10;;;;;;;9.42;100.00;100536.50;5073933;28;20041;-67
2024/01/22 10:11:30;;;;;;;14.00;4.50;;;;;;;9.08;100.00;100524.16;5058554;28;20131;-67
2024/01/22 10:14:34;;;;;;;15.15;4.68;;;;;;;9.01;100.00;100520.03;5057429;28;20049;-66
2024/01/22 10:17:25;;;;;;;12.75;3.63;;;;;;;9.05;100.00;100526.59;5046165;28;20047;-68
2024/01/22 10:20:16;;;;;;;14.90;3.75;;;;;;;9.08;100.00;100536.94;5060260;28;20056;-68
2024/01/22 10:23:04;;;;;;;15.60;4.28;;;;;;;9.06;100.00;100544.53;5072843;28;20060;-67
2024/01/22 10:26:06;;;;;;;16.15;4.30;;;;;;;9.05;100.00;100521.16;5058391;28;20048;-68
2024/01/22 10:28:55;;;;;;;14.63;4.22;;;;;;;9.07;100.00;100529.88;5058198;28;20040;-67
2024/01/22 10:31:57;;;;;;;15.73;4.32;;;;;;;9.07;100.00;100535.31;5037341;28;20072;-67
2024/01/22 10:34:50;;;;;;;16.50;4.50;;;;;;;9.02;100.00;100552.41;5051796;28;20045;-68
2024/01/22 10:37:38;;;;;;;15.77;3.97;;;;;;;9.00;100.00;100562.72;5055236;28;20037;-67
2024/01/22 10:40:30;;;;;;;17.38;4.32;;;;;;;8.96;100.00;100577.91;5053736;28;20180;-67
2024/01/22 10:43:26;;;;;;;15.38;4.20;;;;;;;8.92;100.00;100577.63;5064187;28;20106;-68
2024/01/22 10:46:16;;;;;;;14.25;3.97;;;;;;;8.90;100.00;100568.09;5045923;28;20049;-68
2024/01/22 10:49:05;;;;;;;17.58;5.00;;;;;;;8.93;100.00;100573.81;5071737;28;20060;-68
2024/01/22 10:51:53;;;;;;;17.95;4.57;;;;;;;8.88;100.00;100581.94;5065243;28;20047;-67
2024/01/22 10:54:41;;;;;;;19.67;4.78;;;;;;;8.86;100.00;100578.66;5053980;28;20072;-66
2024/01/22 10:57:40;;;;;;;15.93;4.95;;;;;;;8.84;100.00;100575.38;5056322;28;20139;-65
2024/01/22 11:00:30;;;;;;;19.75;5.35;;;;;;;8.88;100.00;100579.22;5047481;28;20056;-66
2024/01/22 11:03:20;;;;;;;19.38;4.70;;;;;;;8.89;100.00;100583.56;5064709;28;20060;-65
2024/01/22 11:06:09;;;;;;;26.67;6.10;;;;;;;8.91;100.00;100595.00;5077375;28;20044;-67
2024/01/22 11:08:57;;;;;;;21.20;5.28;;;;;;;8.90;100.00;100579.78;5058309;28;20044;-67
2024/01/22 11:11:47;;;;;;;22.10;5.40;;;;;;;8.92;100.00;100584.94;5037220;28;20048;-67
2024/01/22 11:14:42;;;;;;;25.80;6.18;;;;;;;8.94;100.00;100583.59;5039407;28;20507;-68
2024/01/22 11:17:30;;;;;;;23.27;6.40;;;;;;;8.94;100.00;100586.31;5029992;28;20033;-67
2024/01/22 11:20:23;;;;;;;32.83;7.05;;;;;;;8.95;100.00;100593.38;5059355;28;20519;-67
2024/01/22 11:23:16;;;;;;;30.65;7.60;;;;;;;8.99;100.00;100593.66;5063916;28;20230;-69
2024/01/22 11:26:10;;;;;;;29.38;7.95;;;;;;;9.03;100.00;100588.53;5038338;28;20049;-68
2024/01/22 11:29:15;;;;;;;28.27;6.80;;;;;;;9.07;100.00;100586.94;5061517;28;20142;-66
2024/01/22 11:32:26;;;;;;;29.60;6.85;;;;;;;9.07;100.00;100598.63;5057309;28;20049;-67
2024/01/22 11:35:34;;;;;;;37.13;8.45;;;;;;;9.09;100.00;100609.22;5023635;28;20136;-69
2024/01/22 11:38:51;;;;;;;35.70;7.78;;;;;;;9.08;100.00;100604.88;5058447;28;20431;-67
2024/01/22 11:41:41;;;;;;;35.75;9.45;;;;;;;9.12;100.00;100616.88;5057939;28;20124;-70
2024/01/22 11:44:29;;;;;;;38.60;8.63;;;;;;;9.17;100.00;100622.31;4350693;28;10000863;-67
2024/01/22 11:47:18;;;;;;;36.25;8.02;;;;;;;9.22;100.00;100618.81;5048826;28;20045;-68
2024/01/22 11:50:08;;;;;;;35.17;8.98;;;;;;;9.27;100.00;100627.00;5026685;28;20084;-68
2024/01/22 11:53:02;;;;;;;30.55;8.07;;;;;;;9.32;100.00;100633.25;5034450;28;20045;-67
2024/01/22 11:55:57;;;;;;;40.28;9.27;;;;;;;9.36;100.00;100630.84;5046877;28;20059;-67
2024/01/22 11:58:45;;;;;;;36.28;8.38;;;;;;;9.42;100.00;100642.56;5088293;28;20048;-67
2024/01/22 12:01:34;;;;;;;38.45;9.18;;;;;;;9.49;100.00;100640.41;5054268;28;20151;-69
2024/01/22 12:04:22;;;;;;;34.63;8.15;;;;;;;9.54;100.00;100654.03;5071777;28;20043;-67
2024/01/22 12:07:10;;;;;;;39.63;8.63;;;;;;;9.63;100.00;100662.53;5087673;28;20051;-66
2024/01/22 12:09:58;;;;;;;34.70;8.57;;;;;;;9.70;100.00;100647.59;5070767;28;20083;-67
2024/01/22 12:12:56;;;;;;;43.13;10.43;;;;;;;9.74;100.00;100648.69;5055664;28;20068;-67
2024/01/22 12:15:44;;;;;;;40.30;9.15;;;;;;;9.78;100.00;100648.97;5072705;28;20052;-66
2024/01/22 12:18:33;;;;;;;31.13;7.75;;;;;;;9.78;100.00;100662.56;5076289;28;20041;-65
2024/01/22 12:21:22;;;;;;;34.35;7.80;;;;;;;9.80;100.00;100663.13;5073973;28;20040;-68
2024/01/22 12:24:14;;;;;;;26.38;6.68;;;;;;;9.78;100.00;100657.94;5046555;28;20040;-67
2024/01/22 12:27:02;;;;;;;25.13;6.47;;;;;;;9.82;100.00;100660.97;5061272;28;20055;-67
2024/01/22 12:29:59;;;;;;;34.10;7.45;;;;;;;9.77;100.00;100678.09;5060515;28;20381;-66
2024/01/22 12:32:52;;;;;;;31.85;8.13;;;;;;;9.78;100.00;100682.44;5074306;28;20417;-68
2024/01/22 12:35:45;;;;;;;31.08;7.25;;;;;;;9.84;100.00;100690.59;5040177;28;20132;-66
2024/01/22 12:38:49;;;;;;;31.88;7.57;;;;;;;9.84;100.00;100690.59;5041690;28;20084;-66
2024/01/22 12:41:38;;;;;;;30.60;7.38;;;;;;;9.88;100.00;100692.53;5042212;28;20052;-67
2024/01/22 12:44:26;;;;;;;29.90;6.90;;;;;;;9.88;100.00;100703.41;5060158;28;20045;-66
2024/01/22 12:47:14;;;;;;;28.85;7.93;;;;;;;9.90;100.00;100705.88;5064636;28;20075;-68
2024/01/22 12:50:02;;;;;;;29.08;7.75;;;;;;;9.93;100.00;100699.91;5095325;28;20040;-66
2024/01/22 12:52:51;;;;;;;25.83;6.70;;;;;;;9.91;100.00;100711.06;5059950;28;20126;-67
2024/01/22 12:55:39;;;;;;;30.25;7.68;;;;;;;9.90;100.00;100708.59;5059212;28;20043;-67
2024/01/22 12:58:28;;;;;;;28.35;6.35;;;;;;;9.95;100.00;100711.34;5060444;28;20457;-66
2024/01/22 13:01:16;;;;;;;29.05;7.28;;;;;;;9.87;100.00;100723.56;5051951;28;20060;-67
2024/01/22 13:04:05;;;;;;;32.15;7.80;;;;;;;9.85;100.00;100736.59;5082343;28;20430;-67